Time;durP1;ratioP1;P1;durP2;ratioP2;P2;SDS_P1;SDS_P2;PMS_P1;PMS_P2;Temp;Humidity;BMP_temperature;BMP_pressure;BME280_temperature;BME280_humidity;BME280_pressure;Samples;Min_cycle;Max_cycle;Signal;HPM_P1;HPM_P2
2022/09/20 00:00:31;;;;;;;0.43;0.38;;;;;;;;;;5090693;28;20181;-60
2022/09/20 00:02:56;;;;;;;0.27;0.27;;;;;;;;;;5089872;28;20538;-62
2022/09/20 00:05:21;;;;;;;0.60;0.30;;;;;;;;;;5090082;28;20284;-62
2022/09/20 00:07:46;;;;;;;0.70;0.40;;;;;;;;;;5090218;28;20337;-60
2022/09/20 00:10:12;;;;;;;0.30;0.27;;;;;;;;;;5090268;28;20286;-60
2022/09/20 00:12:38;;;;;;;0.40;0.30;;;;;;;;;;5090189;28;20040;-62
2022/09/20 00:15:04;;;;;;;0.70;0.40;;;;;;;;;;5089876;28;20043;-62
2022/09/20 00:17:29;;;;;;;0.47;0.38;;;;;;;;;;5090166;28;20048;-62
2022/09/20 00:19:54;;;;;;;0.30;0.30;;;;;;;;;;5082290;28;20095;-62
2022/09/20 00:22:20;;;;;;;0.33;0.30;;;;;;;;;;5069865;28;20052;-62
2022/09/20 00:24:46;;;;;;;0.45;0.40;;;;;;;;;;5060371;28;20744;-61
2022/09/20 00:27:11;;;;;;;0.63;0.45;;;;;;;;;;5078050;28;20052;-62
2022/09/20 00:29:36;;;;;;;0.57;0.43;;;;;;;;;;5073694;28;20036;-60
2022/09/20 00:32:02;;;;;;;0.60;0.40;;;;;;;;;;5090175;28;20452;-62
2022/09/20 00:37:11;;;;;;;0.32;0.30;;;;;;;;;;5090018;28;20646;-62
2022/09/20 00:39:36;;;;;;;0.40;0.40;;;;;;;;;;5089753;28;20496;-62
2022/09/20 00:42:01;;;;;;;0.45;0.40;;;;;;;;;;5089689;28;20115;-62
2022/09/20 00:44:42;;;;;;;0.20;0.20;;;;;;;;;;5089698;28;20846;-61
2022/09/20 00:47:18;;;;;;;0.35;0.30;;;;;;;;;;5089527;28;20097;-60
2022/09/20 00:49:43;;;;;;;0.90;0.50;;;;;;;;;;5089597;28;20039;-60
2022/09/20 00:52:08;;;;;;;0.50;0.40;;;;;;;;;;5089688;28;20452;-60
2022/09/20 00:54:34;;;;;;;0.40;0.30;;;;;;;;;;5089261;28;20044;-62
2022/09/20 00:57:00;;;;;;;0.30;0.22;;;;;;;;;;5089608;28;20286;-60
2022/09/20 00:59:31;;;;;;;0.85;0.50;;;;;;;;;;5089662;28;20512;-62
2022/09/20 01:02:01;;;;;;;0.60;0.30;;;;;;;;;;5089213;28;20189;-62
2022/09/20 01:04:27;;;;;;;0.60;0.45;;;;;;;;;;5089109;28;20109;-60
2022/09/20 01:06:54;;;;;;;1.23;0.50;;;;;;;;;;5087133;28;20138;-61
2022/09/20 01:09:20;;;;;;;0.95;0.60;;;;;;;;;;5089419;28;20036;-60
2022/09/20 01:11:45;;;;;;;0.50;0.40;;;;;;;;;;5089190;28;20089;-62
2022/09/20 01:14:14;;;;;;;0.68;0.30;;;;;;;;;;5089050;28;20100;-62
2022/09/20 01:16:40;;;;;;;0.38;0.30;;;;;;;;;;5087722;28;20504;-60
2022/09/20 01:19:15;;;;;;;0.40;0.30;;;;;;;;;;5088009;28;20032;-62
2022/09/20 01:21:40;;;;;;;0.73;0.50;;;;;;;;;;5069126;28;20496;-62
2022/09/20 01:24:24;;;;;;;0.70;0.50;;;;;;;;;;5082994;28;20036;-60
2022/09/20 01:26:56;;;;;;;0.60;0.47;;;;;;;;;;5089235;28;20043;-62
2022/09/20 01:29:30;;;;;;;0.40;0.40;;;;;;;;;;5089316;28;20432;-60
2022/09/20 01:31:59;;;;;;;0.65;0.50;;;;;;;;;;5089275;28;20149;-60
2022/09/20 01:34:48;;;;;;;0.63;0.43;;;;;;;;;;5088778;28;20056;-62
2022/09/20 01:37:27;;;;;;;0.43;0.43;;;;;;;;;;5076248;28;20054;-62
2022/09/20 01:40:15;;;;;;;1.02;0.60;;;;;;;;;;5089051;28;20174;-60
2022/09/20 01:42:48;;;;;;;0.50;0.40;;;;;;;;;;5088031;28;20059;-60
2022/09/20 01:45:14;;;;;;;0.75;0.40;;;;;;;;;;5082107;28;20084;-60
2022/09/20 01:47:39;;;;;;;0.77;0.50;;;;;;;;;;5050672;28;20487;-60
2022/09/20 01:50:18;;;;;;;0.73;0.40;;;;;;;;;;5072933;28;20028;-62
2022/09/20 01:52:44;;;;;;;0.75;0.47;;;;;;;;;;5088943;28;20610;-62
2022/09/20 01:55:33;;;;;;;0.60;0.43;;;;;;;;;;5088592;28;20191;-60
2022/09/20 01:58:22;;;;;;;0.60;0.40;;;;;;;;;;5088848;28;20048;-62
2022/09/20 02:00:50;;;;;;;1.00;0.50;;;;;;;;;;5080219;28;20456;-60
2022/09/20 02:03:44;;;;;;;0.63;0.50;;;;;;;;;;5083485;28;20079;-62
2022/09/20 02:06:16;;;;;;;0.82;0.60;;;;;;;;;;5088399;28;20525;-61
2022/09/20 02:09:00;;;;;;;0.70;0.60;;;;;;;;;;5091928;28;20039;-60
2022/09/20 02:11:36;;;;;;;1.13;0.52;;;;;;;;;;5091068;28;20040;-60
2022/09/20 02:14:23;;;;;;;1.02;0.55;;;;;;;;;;5091952;28;20101;-60
2022/09/20 02:17:07;;;;;;;0.70;0.50;;;;;;;;;;5083999;28;20044;-62
2022/09/20 02:19:48;;;;;;;1.45;0.60;;;;;;;;;;5092033;28;20104;-62
2022/09/20 02:22:31;;;;;;;0.80;0.45;;;;;;;;;;5091926;28;20055;-62
2022/09/20 02:25:04;;;;;;;1.38;0.60;;;;;;;;;;5091571;28;20048;-60
2022/09/20 02:27:37;;;;;;;0.90;0.60;;;;;;;;;;5087867;28;20068;-60
2022/09/20 02:30:14;;;;;;;1.00;0.57;;;;;;;;;;5083244;28;20098;-62
2022/09/20 02:32:39;;;;;;;0.73;0.57;;;;;;;;;;5092080;28;20040;-62
2022/09/20 02:35:23;;;;;;;0.90;0.63;;;;;;;;;;5091622;28;20458;-62
2022/09/20 02:37:48;;;;;;;1.13;0.73;;;;;;;;;;5091922;28;20134;-60
2022/09/20 02:40:20;;;;;;;1.03;0.60;;;;;;;;;;5091749;28;20119;-60
2022/09/20 02:43:00;;;;;;;0.80;0.52;;;;;;;;;;5091720;28;20286;-60
2022/09/20 02:45:38;;;;;;;1.00;0.60;;;;;;;;;;5091513;28;20073;-60
2022/09/20 02:48:04;;;;;;;0.63;0.50;;;;;;;;;;5091842;28;20054;-62
2022/09/20 02:50:38;;;;;;;0.80;0.60;;;;;;;;;;5073230;28;20135;-62
2022/09/20 02:53:06;;;;;;;0.88;0.60;;;;;;;;;;5091651;28;20074;-62
2022/09/20 02:55:34;;;;;;;0.95;0.60;;;;;;;;;;5069814;28;20041;-60
2022/09/20 02:57:59;;;;;;;1.17;0.68;;;;;;;;;;5091789;28;20044;-60
2022/09/20 03:00:29;;;;;;;0.70;0.40;;;;;;;;;;5091603;28;20140;-60
2022/09/20 03:03:18;;;;;;;1.38;0.70;;;;;;;;;;5076916;28;20052;-62
2022/09/20 03:06:02;;;;;;;1.00;0.60;;;;;;;;;;5073095;28;20042;-62
2022/09/20 03:08:49;;;;;;;0.50;0.40;;;;;;;;;;5091294;28;20071;-62
2022/09/20 03:11:18;;;;;;;1.30;0.70;;;;;;;;;;5091013;28;20048;-60
2022/09/20 03:14:07;;;;;;;0.73;0.45;;;;;;;;;;5091381;28;20040;-60
2022/09/20 03:16:35;;;;;;;0.90;0.50;;;;;;;;;;5084620;28;20433;-62
2022/09/20 03:19:19;;;;;;;0.75;0.40;;;;;;;;;;5082442;28;20094;-62
2022/09/20 03:22:07;;;;;;;1.00;0.70;;;;;;;;;;5090927;28;20055;-62
2022/09/20 03:24:39;;;;;;;1.15;0.60;;;;;;;;;;5090307;28;20581;-62
2022/09/20 03:27:23;;;;;;;1.38;0.70;;;;;;;;;;5090893;28;20036;-60
2022/09/20 03:29:48;;;;;;;0.90;0.70;;;;;;;;;;5089854;28;20050;-60
2022/09/20 03:32:32;;;;;;;0.70;0.57;;;;;;;;;;5078280;28;20040;-60
2022/09/20 03:35:16;;;;;;;1.25;0.60;;;;;;;;;;5090793;28;20269;-62
2022/09/20 03:38:00;;;;;;;0.82;0.47;;;;;;;;;;5090741;28;20523;-60
2022/09/20 03:40:45;;;;;;;1.25;0.70;;;;;;;;;;5090686;28;20047;-60
2022/09/20 03:43:26;;;;;;;0.68;0.50;;;;;;;;;;5090744;28;20095;-60
2022/09/20 03:46:03;;;;;;;0.88;0.60;;;;;;;;;;5089436;28;20081;-62
2022/09/20 03:48:44;;;;;;;1.17;0.60;;;;;;;;;;5089780;28;20048;-62
2022/09/20 03:51:12;;;;;;;1.48;0.80;;;;;;;;;;5079395;28;20563;-62
2022/09/20 03:53:56;;;;;;;1.17;0.65;;;;;;;;;;5090379;28;20078;-60
2022/09/20 03:56:21;;;;;;;0.95;0.60;;;;;;;;;;5080733;28;20048;-62
2022/09/20 03:59:09;;;;;;;0.97;0.60;;;;;;;;;;5086279;28;20044;-60
2022/09/20 04:01:34;;;;;;;1.25;0.68;;;;;;;;;;5090682;28;20040;-60
2022/09/20 04:04:03;;;;;;;1.00;0.70;;;;;;;;;;5090428;28;20047;-60
2022/09/20 04:06:34;;;;;;;1.10;0.68;;;;;;;;;;5090244;28;20298;-60
2022/09/20 04:09:18;;;;;;;1.17;0.90;;;;;;;;;;5090395;28;20040;-60
2022/09/20 04:12:00;;;;;;;0.68;0.47;;;;;;;;;;5090258;28;20086;-60
2022/09/20 04:14:33;;;;;;;1.00;0.60;;;;;;;;;;5090079;28;20071;-60
2022/09/20 04:17:14;;;;;;;1.02;0.60;;;;;;;;;;5090158;28;20067;-60
2022/09/20 04:20:03;;;;;;;0.95;0.63;;;;;;;;;;5084047;28;20055;-62
2022/09/20 04:22:28;;;;;;;1.08;0.70;;;;;;;;;;5073731;28;20076;-60
2022/09/20 04:25:06;;;;;;;1.27;0.60;;;;;;;;;;5076904;28;20079;-60
2022/09/20 04:27:40;;;;;;;0.70;0.57;;;;;;;;;;5061447;28;20052;-62
2022/09/20 04:30:12;;;;;;;1.13;0.60;;;;;;;;;;5083022;28;20033;-60
2022/09/20 04:32:47;;;;;;;0.98;0.60;;;;;;;;;;5080287;28;20064;-62
2022/09/20 04:38:05;;;;;;;0.95;0.63;;;;;;;;;;5089830;28;20511;-60
2022/09/20 04:40:50;;;;;;;1.02;0.68;;;;;;;;;;5089749;28;20079;-61
2022/09/20 04:43:16;;;;;;;1.27;0.77;;;;;;;;;;5089756;28;20082;-62
2022/09/20 04:46:00;;;;;;;0.98;0.60;;;;;;;;;;5090020;28;20040;-62
2022/09/20 04:48:44;;;;;;;1.13;0.57;;;;;;;;;;5089540;28;20036;-60
2022/09/20 04:51:27;;;;;;;1.00;0.70;;;;;;;;;;5089793;28;20048;-60
2022/09/20 04:53:52;;;;;;;1.10;0.70;;;;;;;;;;5089418;28;20547;-62
2022/09/20 04:56:33;;;;;;;0.70;0.50;;;;;;;;;;5089439;28;20153;-62
2022/09/20 04:59:05;;;;;;;1.00;0.60;;;;;;;;;;5081304;28;20717;-62
2022/09/20 05:01:33;;;;;;;2.13;0.52;;;;;;;;;;5084484;28;20047;-60
2022/09/20 05:04:05;;;;;;;1.60;0.70;;;;;;;;;;5071326;28;20483;-62
2022/09/20 05:06:49;;;;;;;0.88;0.57;;;;;;;;;;5075156;28;20047;-62
2022/09/20 05:09:33;;;;;;;1.08;0.65;;;;;;;;;;5077915;28;20040;-60
2022/09/20 05:12:08;;;;;;;0.90;0.55;;;;;;;;;;5089358;28;20424;-60
2022/09/20 05:14:33;;;;;;;1.10;0.65;;;;;;;;;;5089408;28;20044;-62
2022/09/20 05:16:58;;;;;;;1.50;0.70;;;;;;;;;;5089219;28;20110;-60
2022/09/20 05:19:43;;;;;;;1.60;0.70;;;;;;;;;;5088968;28;20048;-61
2022/09/20 05:22:08;;;;;;;1.13;0.63;;;;;;;;;;5088918;28;20526;-60
2022/09/20 05:24:41;;;;;;;0.85;0.60;;;;;;;;;;5089021;28;20135;-60
2022/09/20 05:27:24;;;;;;;0.85;0.60;;;;;;;;;;5087761;28;20150;-60
2022/09/20 05:29:49;;;;;;;3.45;0.70;;;;;;;;;;5078534;28;20036;-62
2022/09/20 05:32:21;;;;;;;2.90;0.87;;;;;;;;;;5088912;28;20044;-60
2022/09/20 05:35:15;;;;;;;5.22;0.73;;;;;;;;;;5089257;28;20043;-60
2022/09/20 05:38:04;;;;;;;3.70;0.70;;;;;;;;;;5063672;28;20056;-60
2022/09/20 05:40:29;;;;;;;1.50;0.70;;;;;;;;;;5068987;28;20041;-62
2022/09/20 05:43:19;;;;;;;2.40;0.67;;;;;;;;;;5085129;28;20048;-62
2022/09/20 05:46:09;;;;;;;2.80;0.70;;;;;;;;;;5088802;28;20546;-62
2022/09/20 05:48:37;;;;;;;0.77;0.43;;;;;;;;;;5088915;28;20075;-62
2022/09/20 05:51:03;;;;;;;0.93;0.55;;;;;;;;;;5088958;28;20539;-61
2022/09/20 05:53:34;;;;;;;1.27;0.60;;;;;;;;;;5089020;28;20181;-59
2022/09/20 05:55:59;;;;;;;3.00;0.60;;;;;;;;;;5088879;28;20055;-62
2022/09/20 05:58:27;;;;;;;1.05;0.70;;;;;;;;;;5076796;28;20488;-62
2022/09/20 06:00:57;;;;;;;0.90;0.57;;;;;;;;;;5086767;28;20046;-60
2022/09/20 06:03:44;;;;;;;1.23;0.80;;;;;;;;;;5088752;28;20044;-62
2022/09/20 06:06:17;;;;;;;1.50;0.70;;;;;;;;;;5088591;28;20036;-59
2022/09/20 06:08:42;;;;;;;;;;;;;;;;;;5089109;28;20059;-62
2022/09/20 06:11:07;;;;;;;1.10;0.50;;;;;;;;;;5088961;28;20340;-62
2022/09/20 06:13:41;;;;;;;1.17;0.63;;;;;;;;;;5086839;28;20036;-62
2022/09/20 06:16:11;;;;;;;1.30;0.80;;;;;;;;;;5087554;28;20189;-62
2022/09/20 06:18:39;;;;;;;1.65;0.73;;;;;;;;;;5084468;28;20044;-60
2022/09/20 06:21:07;;;;;;;1.08;0.50;;;;;;;;;;5088593;28;20048;-62
2022/09/20 06:23:34;;;;;;;0.88;0.60;;;;;;;;;;5088432;28;20044;-59
2022/09/20 06:26:01;;;;;;;1.50;0.70;;;;;;;;;;5088520;28;20135;-59
2022/09/20 06:28:34;;;;;;;1.25;0.70;;;;;;;;;;5088051;28;20033;-60
2022/09/20 06:31:00;;;;;;;1.98;0.60;;;;;;;;;;5073468;28;20645;-62
2022/09/20 06:33:27;;;;;;;0.77;0.40;;;;;;;;;;5073727;28;20041;-60
2022/09/20 06:41:50;;;;;;;0.80;0.60;;;;;;;;;;5078678;28;20424;-60
2022/09/20 06:44:15;;;;;;;0.90;0.50;;;;;;;;;;5069411;28;20452;-60
2022/09/20 06:46:40;;;;;;;1.45;0.68;;;;;;;;;;5088391;28;20488;-61
2022/09/20 06:49:08;;;;;;;0.67;0.50;;;;;;;;;;5087757;28;20074;-59
2022/09/20 06:51:34;;;;;;;1.60;0.70;;;;;;;;;;5068596;28;20595;-62
2022/09/20 06:54:00;;;;;;;1.30;0.70;;;;;;;;;;5080133;28;20416;-62
2022/09/20 06:56:26;;;;;;;1.00;0.60;;;;;;;;;;5082050;28;20511;-62
2022/09/20 06:58:52;;;;;;;1.05;0.70;;;;;;;;;;5089454;28;20056;-62
2022/09/20 07:01:18;;;;;;;0.82;0.60;;;;;;;;;;5072276;28;20087;-61
2022/09/20 07:03:43;;;;;;;1.10;0.63;;;;;;;;;;5074506;28;20063;-61
2022/09/20 07:06:09;;;;;;;1.13;0.70;;;;;;;;;;5074078;28;20051;-61
2022/09/20 07:08:35;;;;;;;1.42;0.73;;;;;;;;;;5077336;28;20358;-61
2022/09/20 07:11:05;;;;;;;2.25;0.65;;;;;;;;;;5078390;28;20439;-61
2022/09/20 07:13:33;;;;;;;0.88;0.50;;;;;;;;;;5067282;28;20055;-61
2022/09/20 07:16:03;;;;;;;1.08;0.65;;;;;;;;;;5069553;28;20044;-61
2022/09/20 07:18:28;;;;;;;1.73;0.70;;;;;;;;;;5060754;28;20416;-63
2022/09/20 07:20:54;;;;;;;0.70;0.50;;;;;;;;;;5082845;28;20570;-59
2022/09/20 07:23:20;;;;;;;1.23;0.60;;;;;;;;;;5079678;28;20036;-60
2022/09/20 07:25:45;;;;;;;1.70;0.77;;;;;;;;;;5088959;28;20039;-61
2022/09/20 07:28:10;;;;;;;0.87;0.60;;;;;;;;;;5075967;28;20072;-59
2022/09/20 07:30:35;;;;;;;1.40;0.80;;;;;;;;;;5082130;28;20501;-62
2022/09/20 07:33:01;;;;;;;0.88;0.55;;;;;;;;;;5085248;28;20040;-59
2022/09/20 07:35:27;;;;;;;1.10;0.60;;;;;;;;;;5066992;28;20076;-60
2022/09/20 07:37:56;;;;;;;0.90;0.50;;;;;;;;;;5074325;28;20051;-63
2022/09/20 07:40:21;;;;;;;1.08;0.60;;;;;;;;;;5080299;28;20040;-61
2022/09/20 07:42:46;;;;;;;0.63;0.50;;;;;;;;;;5083312;28;20527;-61
2022/09/20 07:45:12;;;;;;;1.13;0.70;;;;;;;;;;5076634;28;20090;-64
2022/09/20 07:47:40;;;;;;;0.85;0.70;;;;;;;;;;5075263;28;20110;-59
2022/09/20 07:50:05;;;;;;;0.90;0.60;;;;;;;;;;5083881;28;20419;-65
2022/09/20 07:52:31;;;;;;;1.05;0.57;;;;;;;;;;5087076;28;20583;-59
2022/09/20 07:54:56;;;;;;;3.35;0.65;;;;;;;;;;5086123;28;20416;-59
2022/09/20 07:57:21;;;;;;;0.75;0.50;;;;;;;;;;5086355;28;20028;-61
2022/09/20 07:59:47;;;;;;;1.23;0.70;;;;;;;;;;5074431;28;20048;-59
2022/09/20 08:02:13;;;;;;;1.70;0.60;;;;;;;;;;5081327;28;20051;-60
2022/09/20 08:04:38;;;;;;;0.70;0.40;;;;;;;;;;5076916;28;20283;-62
2022/09/20 08:07:04;;;;;;;0.83;0.60;;;;;;;;;;5087588;28;20420;-60
2022/09/20 08:09:29;;;;;;;0.85;0.60;;;;;;;;;;5086035;28;20400;-62
2022/09/20 08:11:55;;;;;;;0.82;0.50;;;;;;;;;;5088564;28;20132;-62
2022/09/20 08:14:21;;;;;;;0.70;0.50;;;;;;;;;;5075494;28;20523;-62
2022/09/20 08:16:47;;;;;;;0.70;0.50;;;;;;;;;;5074204;28;20039;-62
2022/09/20 08:19:16;;;;;;;0.90;0.60;;;;;;;;;;5075169;28;20060;-59
2022/09/20 08:21:43;;;;;;;1.00;0.57;;;;;;;;;;5089823;28;20044;-59
2022/09/20 08:24:08;;;;;;;0.77;0.52;;;;;;;;;;5079649;28;20462;-58
2022/09/20 08:26:34;;;;;;;0.80;0.50;;;;;;;;;;5079222;28;20536;-59
2022/09/20 08:29:00;;;;;;;0.68;0.40;;;;;;;;;;5078064;28;20043;-62
2022/09/20 08:31:26;;;;;;;1.50;0.65;;;;;;;;;;5077151;28;20495;-62
2022/09/20 08:33:53;;;;;;;0.73;0.60;;;;;;;;;;5081228;28;20048;-62
2022/09/20 08:36:19;;;;;;;1.00;0.60;;;;;;;;;;5079523;28;20032;-62
2022/09/20 08:38:45;;;;;;;0.85;0.57;;;;;;;;;;5086866;28;20071;-61
2022/09/20 08:41:16;;;;;;;0.90;0.50;;;;;;;;;;5068207;28;20071;-59
2022/09/20 08:43:44;;;;;;;1.10;0.60;;;;;;;;;;5091215;28;20090;-60
2022/09/20 08:46:12;;;;;;;0.98;0.50;;;;;;;;;;5068695;28;20052;-60
2022/09/20 08:48:38;;;;;;;0.75;0.55;;;;;;;;;;5085746;28;20043;-59
2022/09/20 08:51:05;;;;;;;0.70;0.40;;;;;;;;;;5079653;28;20066;-63
2022/09/20 08:53:30;;;;;;;0.63;0.40;;;;;;;;;;5087471;28;20146;-63
2022/09/20 08:55:58;;;;;;;1.00;0.40;;;;;;;;;;5059468;28;20514;-59
2022/09/20 08:58:24;;;;;;;0.77;0.60;;;;;;;;;;5078384;28;20068;-59
2022/09/20 09:00:49;;;;;;;0.75;0.60;;;;;;;;;;5073393;28;20049;-58
2022/09/20 09:03:18;;;;;;;0.97;0.60;;;;;;;;;;5077161;28;20098;-58
2022/09/20 09:05:45;;;;;;;0.77;0.50;;;;;;;;;;5075845;28;20044;-58
2022/09/20 09:08:17;;;;;;;0.95;0.50;;;;;;;;;;5060470;28;20151;-62
2022/09/20 09:10:51;;;;;;;0.77;0.45;;;;;;;;;;5052917;28;20049;-59
2022/09/20 09:13:21;;;;;;;0.77;0.60;;;;;;;;;;5053544;28;20049;-59
2022/09/20 09:15:52;;;;;;;0.95;0.60;;;;;;;;;;5061170;28;20072;-62
2022/09/20 09:18:17;;;;;;;0.82;0.60;;;;;;;;;;5050593;28;20052;-58
2022/09/20 09:20:45;;;;;;;1.00;0.50;;;;;;;;;;5048865;28;20048;-58
2022/09/20 09:23:20;;;;;;;0.90;0.60;;;;;;;;;;5056586;28;20564;-58
2022/09/20 09:25:45;;;;;;;0.47;0.30;;;;;;;;;;5059434;28;20037;-63
2022/09/20 09:28:12;;;;;;;1.25;0.60;;;;;;;;;;5053139;28;20036;-63
2022/09/20 09:30:39;;;;;;;0.50;0.40;;;;;;;;;;5054241;28;20132;-63
2022/09/20 09:33:16;;;;;;;1.02;0.68;;;;;;;;;;5054469;28;20479;-61
2022/09/20 09:35:42;;;;;;;1.08;0.60;;;;;;;;;;5066150;28;20040;-64
2022/09/20 09:38:28;;;;;;;0.75;0.57;;;;;;;;;;5064192;28;20068;-63
2022/09/20 09:40:57;;;;;;;0.45;0.45;;;;;;;;;;5054635;28;20584;-65
2022/09/20 09:43:28;;;;;;;0.77;0.43;;;;;;;;;;5064396;28;20082;-64
2022/09/20 09:45:55;;;;;;;0.80;0.57;;;;;;;;;;5034054;28;20049;-64
2022/09/20 09:48:25;;;;;;;0.70;0.50;;;;;;;;;;5060365;28;20045;-57
2022/09/20 09:51:05;;;;;;;0.70;0.50;;;;;;;;;;5054225;28;20039;-57
2022/09/20 09:53:32;;;;;;;0.60;0.50;;;;;;;;;;5044017;28;20049;-64
2022/09/20 09:56:16;;;;;;;0.75;0.50;;;;;;;;;;5050943;28;20557;-62
2022/09/20 09:58:48;;;;;;;0.70;0.50;;;;;;;;;;5052207;28;20493;-64
2022/09/20 10:01:22;;;;;;;1.02;0.60;;;;;;;;;;5057959;28;20047;-59
2022/09/20 10:04:23;;;;;;;1.27;0.77;;;;;;;;;;5063789;28;20452;-58
2022/09/20 10:07:08;;;;;;;1.10;0.60;;;;;;;;;;4994862;28;20053;-58
2022/09/20 10:09:50;;;;;;;1.20;0.50;;;;;;;;;;4976589;28;20603;-59
2022/09/20 10:12:29;;;;;;;1.02;0.60;;;;;;;;;;5001693;28;20046;-59
2022/09/20 10:15:13;;;;;;;1.42;0.50;;;;;;;;;;4967332;28;20047;-63
2022/09/20 10:17:38;;;;;;;1.33;0.65;;;;;;;;;;4966527;28;20043;-59
2022/09/20 10:20:06;;;;;;;0.90;0.60;;;;;;;;;;4982614;28;20051;-63
2022/09/20 10:22:55;;;;;;;0.82;0.50;;;;;;;;;;4965100;28;20314;-59
2022/09/20 10:25:30;;;;;;;0.40;0.40;;;;;;;;;;4996596;28;20038;-59
2022/09/20 10:28:22;;;;;;;0.80;0.47;;;;;;;;;;5004204;28;20045;-63
2022/09/20 10:31:01;;;;;;;0.55;0.32;;;;;;;;;;4989858;28;20509;-63
2022/09/20 10:33:47;;;;;;;1.08;0.60;;;;;;;;;;4978455;28;20125;-59
2022/09/20 10:36:25;;;;;;;0.60;0.50;;;;;;;;;;4995657;28;20494;-63
2022/09/20 10:38:57;;;;;;;0.82;0.60;;;;;;;;;;4969199;28;20043;-63
2022/09/20 10:44:17;;;;;;;0.50;0.30;;;;;;;;;;5068682;28;20095;-59
2022/09/20 10:46:45;;;;;;;0.45;0.40;;;;;;;;;;5056627;28;20052;-59
2022/09/20 10:49:24;;;;;;;0.57;0.40;;;;;;;;;;5060476;28;20060;-63
2022/09/20 10:51:59;;;;;;;0.98;0.60;;;;;;;;;;5055380;28;20091;-59
2022/09/20 10:54:37;;;;;;;0.82;0.50;;;;;;;;;;5071066;28;20081;-63
2022/09/20 10:57:21;;;;;;;0.80;0.50;;;;;;;;;;5061024;28;20155;-63
2022/09/20 10:59:47;;;;;;;0.75;0.40;;;;;;;;;;5058834;28;20063;-64
2022/09/20 11:02:50;;;;;;;0.63;0.40;;;;;;;;;;5048914;28;20056;-64
2022/09/20 11:05:24;;;;;;;1.05;0.50;;;;;;;;;;5000764;28;20445;-59
2022/09/20 11:07:51;;;;;;;0.63;0.45;;;;;;;;;;5006170;28;20391;-58
2022/09/20 11:10:19;;;;;;;0.65;0.50;;;;;;;;;;5002812;28;20045;-63
2022/09/20 11:12:54;;;;;;;0.90;0.55;;;;;;;;;;4990934;28;20569;-59
2022/09/20 11:15:35;;;;;;;0.82;0.50;;;;;;;;;;5004996;28;20048;-59
2022/09/20 11:18:02;;;;;;;0.75;0.47;;;;;;;;;;5004849;28;20048;-63
2022/09/20 11:20:34;;;;;;;0.60;0.40;;;;;;;;;;5008770;28;20529;-63
2022/09/20 11:23:02;;;;;;;0.60;0.40;;;;;;;;;;5006795;28;20046;-63
2022/09/20 11:25:40;;;;;;;0.60;0.43;;;;;;;;;;5008472;28;20046;-59
2022/09/20 11:28:24;;;;;;;0.63;0.47;;;;;;;;;;5005155;28;20529;-63
2022/09/20 11:30:53;;;;;;;0.55;0.50;;;;;;;;;;5001958;28;20034;-63
2022/09/20 11:33:19;;;;;;;1.42;0.55;;;;;;;;;;4994313;28;20124;-57
2022/09/20 11:35:50;;;;;;;0.55;0.40;;;;;;;;;;5019435;28;20435;-62
2022/09/20 11:38:23;;;;;;;1.05;0.60;;;;;;;;;;5063801;28;20087;-63
2022/09/20 11:40:59;;;;;;;1.40;0.40;;;;;;;;;;5062001;28;20049;-63
2022/09/20 11:43:29;;;;;;;5.75;0.90;;;;;;;;;;5054219;28;20547;-59
2022/09/20 11:45:58;;;;;;;4.65;0.90;;;;;;;;;;5068101;28;20129;-61
2022/09/20 11:48:26;;;;;;;3.55;1.00;;;;;;;;;;5059096;28;20428;-62
2022/09/20 11:51:01;;;;;;;3.63;0.90;;;;;;;;;;5064471;28;20048;-58
2022/09/20 11:53:29;;;;;;;2.40;0.93;;;;;;;;;;5056512;28;20128;-60
2022/09/20 11:56:00;;;;;;;3.50;0.93;;;;;;;;;;5065664;28;20037;-61
2022/09/20 11:58:26;;;;;;;2.17;1.02;;;;;;;;;;5064448;28;20439;-61
2022/09/20 12:00:53;;;;;;;3.28;0.85;;;;;;;;;;5062932;28;20052;-60
2022/09/20 12:03:39;;;;;;;1.08;0.60;;;;;;;26.61;nan;99427.69;5056929;28;20569;-68
2022/09/20 12:06:24;;;;;;;1.48;0.70;;;;;;;26.70;nan;99424.41;5063989;28;20194;-67
2022/09/20 12:08:50;;;;;;;1.55;0.70;;;;;;;26.73;nan;99424.38;5058467;28;20810;-57
2022/09/20 12:11:25;;;;;;;0.85;0.60;;;;;;;26.76;nan;99415.13;5052392;28;20135;-57
2022/09/20 12:14:03;;;;;;;0.90;0.68;;;;;;;26.76;nan;99406.69;5047849;28;20063;-56
2022/09/20 12:16:43;;;;;;;1.98;0.85;;;;;;;26.78;nan;99412.69;5058785;28;20076;-57
2022/09/20 12:19:12;;;;;;;1.40;0.60;;;;;;;26.81;nan;99400.66;5058782;28;20044;-69
2022/09/20 12:22:09;;;;;;;0.98;0.50;;;;;;;26.80;nan;99406.69;5054792;28;20045;-56
2022/09/20 12:24:39;;;;;;;1.08;0.60;;;;;;;26.83;nan;99397.41;5034514;28;20049;-57
2022/09/20 12:27:19;;;;;;;2.50;0.80;;;;;;;26.84;nan;99394.19;5058439;28;20477;-57
2022/09/20 12:29:46;;;;;;;2.75;0.50;;;;;;;26.86;nan;99388.97;5059489;28;20123;-67
2022/09/20 12:32:30;;;;;;;0.82;0.50;;;;;;;26.86;nan;99383.34;5059422;28;20052;-58
2022/09/20 12:34:55;;;;;;;0.80;0.50;;;;;;;26.86;nan;99377.75;5059209;28;20076;-58
2022/09/20 12:37:23;;;;;;;1.00;0.60;;;;;;;26.84;nan;99370.94;5065715;28;20142;-67
2022/09/20 12:39:52;;;;;;;0.82;0.70;;;;;;;26.84;nan;99366.13;5068088;28;20052;-57
2022/09/20 12:42:17;;;;;;;0.95;0.60;;;;;;;26.85;nan;99367.72;5052543;28;20548;-56
2022/09/20 12:44:58;;;;;;;1.80;0.80;;;;;;;26.85;nan;99356.47;5059490;28;20068;-67
2022/09/20 12:47:32;;;;;;;1.77;0.77;;;;;;;26.92;nan;99366.03;5059712;28;20311;-57
2022/09/20 12:52:56;;;;;;;1.17;0.63;;;;;;;26.87;nan;99356.88;5060008;28;20052;-56
2022/09/20 12:55:45;;;;;;;0.60;0.50;;;;;;;26.85;nan;99356.47;5066118;28;20056;-56
2022/09/20 12:58:13;;;;;;;1.25;0.75;;;;;;;26.88;nan;99360.47;5063475;28;20131;-56
2022/09/20 13:00:58;;;;;;;2.30;0.77;;;;;;;26.84;nan;99363.31;5060955;28;20045;-57
2022/09/20 13:03:28;;;;;;;3.92;1.00;;;;;;;26.81;nan;99358.53;5067902;28;20511;-75
2022/09/20 13:06:05;;;;;;;2.28;1.10;;;;;;;26.76;nan;99353.38;5059405;28;20110;-60
2022/09/20 13:08:42;;;;;;;3.70;1.00;;;;;;;26.74;nan;99349.41;5055067;28;20041;-68
2022/09/20 13:11:50;;;;;;;3.35;1.00;;;;;;;26.68;nan;99343.44;5052161;28;20079;-66
2022/09/20 13:14:30;;;;;;;5.03;1.20;;;;;;;26.77;nan;99345.75;5046668;28;20138;-67
2022/09/20 13:17:01;;;;;;;5.30;0.95;;;;;;;26.79;nan;99340.50;5067191;28;20141;-57
2022/09/20 13:19:32;;;;;;;4.63;1.10;;;;;;;26.73;nan;99348.63;5065559;28;20055;-62
2022/09/20 13:22:03;;;;;;;8.63;1.17;;;;;;;26.75;nan;99349.00;5059414;28;20053;-64
2022/09/20 13:24:32;;;;;;;2.25;0.90;;;;;;;26.78;nan;99350.16;5060613;28;20098;-71
2022/09/20 13:27:05;;;;;;;3.78;0.82;;;;;;;26.77;nan;99343.75;5059032;28;20084;-57
2022/09/20 13:29:32;;;;;;;3.72;0.80;;;;;;;26.74;nan;99341.00;5059946;28;20037;-56
2022/09/20 13:32:17;;;;;;;3.20;0.90;;;;;;;26.78;nan;99356.56;5055474;28;20049;-68
2022/09/20 13:34:44;;;;;;;5.50;1.02;;;;;;;26.83;nan;99341.28;5069507;28;20083;-56
2022/09/20 13:37:22;;;;;;;2.53;0.70;;;;;;;26.80;nan;99350.56;5060019;28;20571;-65
2022/09/20 13:39:53;;;;;;;1.73;0.80;;;;;;;26.78;nan;99348.13;5063749;28;20626;-69
2022/09/20 13:42:19;;;;;;;2.95;0.90;;;;;;;26.84;nan;99346.47;5060976;28;20456;-62
2022/09/20 13:44:46;;;;;;;4.22;0.90;;;;;;;26.89;nan;99343.22;5053340;28;20503;-58
2022/09/20 13:47:22;;;;;;;3.10;0.75;;;;;;;26.86;nan;99341.25;5045662;28;20703;-62
2022/09/20 13:49:48;;;;;;;2.15;0.70;;;;;;;26.88;nan;99338.03;5058543;28;20032;-68
2022/09/20 13:52:29;;;;;;;1.70;0.63;;;;;;;26.94;nan;99335.56;5051364;28;20056;-59
2022/09/20 13:54:54;;;;;;;1.80;0.80;;;;;;;26.88;nan;99341.63;5051722;28;20113;-68
2022/09/20 13:57:30;;;;;;;1.65;0.80;;;;;;;26.88;nan;99336.00;5056204;28;20525;-65
2022/09/20 13:59:56;;;;;;;3.65;0.80;;;;;;;26.97;nan;99343.13;5060015;28;20064;-68
2022/09/20 14:02:28;;;;;;;1.98;0.90;;;;;;;27.00;nan;99342.28;5056655;28;20140;-61
2022/09/20 14:04:55;;;;;;;1.65;0.90;;;;;;;27.07;nan;99337.41;5055969;28;20142;-62
2022/09/20 14:07:24;;;;;;;1.38;0.80;;;;;;;27.11;nan;99332.56;5061811;28;20094;-62
2022/09/20 14:09:51;;;;;;;2.97;0.60;;;;;;;27.15;nan;99324.91;5057380;28;20111;-68
2022/09/20 14:12:18;;;;;;;1.08;0.65;;;;;;;27.26;nan;99327.56;5057651;28;20041;-71
2022/09/20 14:14:44;;;;;;;2.67;0.90;;;;;;;27.30;nan;99328.31;5055142;28;20056;-69
2022/09/20 14:17:15;;;;;;;1.48;0.50;;;;;;;27.30;nan;99333.94;5050658;28;20044;-73
2022/09/20 14:19:42;;;;;;;0.73;0.43;;;;;;;27.27;nan;99326.34;5061051;28;20408;-63
2022/09/20 14:22:17;;;;;;;1.35;0.60;;;;;;;27.23;nan;99334.03;5063839;28;20145;-59
2022/09/20 14:25:16;;;;;;;1.95;0.60;;;;;;;27.29;nan;99326.72;5052768;28;20091;-65
2022/09/20 14:27:41;;;;;;;2.03;0.70;;;;;;;27.27;nan;99331.94;5058223;28;20037;-63
2022/09/20 14:30:29;;;;;;;2.05;0.70;;;;;;;27.27;nan;99329.16;5057454;28;20039;-64
2022/09/20 14:32:55;;;;;;;1.88;0.65;;;;;;;27.36;nan;99323.81;5050989;28;20044;-70
2022/09/20 14:35:22;;;;;;;1.10;0.50;;;;;;;27.42;nan;99316.50;5060351;28;20072;-70
2022/09/20 14:37:50;;;;;;;1.65;0.65;;;;;;;27.46;nan;99329.72;5055315;28;20056;-63
2022/09/20 14:40:26;;;;;;;4.22;0.80;;;;;;;27.51;nan;99320.81;5061828;28;20420;-64
2022/09/20 14:42:55;;;;;;;1.55;0.60;;;;;;;27.58;nan;99318.69;5061614;28;20453;-66
2022/09/20 14:45:31;;;;;;;3.38;0.60;;;;;;;27.74;nan;99317.28;5060430;28;20059;-62
2022/09/20 14:48:16;;;;;;;1.58;0.60;;;;;;;27.79;nan;99317.63;5055877;28;20068;-61
2022/09/20 14:50:44;;;;;;;3.22;0.70;;;;;;;28.19;nan;99314.94;5052454;28;20493;-66